Time;durP1;ratioP1;P1;durP2;ratioP2;P2;SDS_P1;SDS_P2;PMS_P1;PMS_P2;Temp;Humidity;BMP_temperature;BMP_pressure;BME280_temperature;BME280_humidity;BME280_pressure;Samples;Min_cycle;Max_cycle;Signal;HPM_P1;HPM_P2
2021/10/23 00:02:22;;;;;;;39.33;7.67;;;8.10;99.90;;;;;;5082959;28;20453;-83
2021/10/23 00:04:49;;;;;;;38.73;7.47;;;8.10;99.90;;;;;;5094460;28;20463;-83
2021/10/23 00:07:16;;;;;;;36.70;6.97;;;8.10;99.90;;;;;;5081266;28;20575;-83
2021/10/23 00:09:43;;;;;;;36.10;7.17;;;8.10;99.90;;;;;;5080482;28;20460;-82
2021/10/23 00:12:09;;;;;;;39.57;6.77;;;8.00;99.90;;;;;;5080823;28;20466;-82
2021/10/23 00:14:38;;;;;;;36.50;7.40;;;8.00;99.90;;;;;;5079645;28;20462;-82
2021/10/23 00:17:04;;;;;;;38.97;8.23;;;8.00;99.90;;;;;;5079830;28;20475;-82
2021/10/23 00:19:31;;;;;;;40.07;7.80;;;8.00;99.90;;;;;;5079891;28;20462;-82
2021/10/23 00:21:59;;;;;;;37.77;7.67;;;8.00;99.90;;;;;;5086278;28;20487;-83
2021/10/23 00:24:27;;;;;;;36.87;8.03;;;8.00;99.90;;;;;;5070371;28;20527;-83
2021/10/23 00:26:53;;;;;;;39.20;8.10;;;8.00;99.90;;;;;;5073398;28;20482;-82
2021/10/23 00:29:20;;;;;;;38.00;8.27;;;8.00;99.90;;;;;;5081012;28;20458;-82
2021/10/23 00:31:48;;;;;;;40.80;10.00;;;8.00;99.90;;;;;;5079371;28;20453;-82
2021/10/23 00:34:15;;;;;;;42.10;9.77;;;8.00;99.90;;;;;;5066803;28;20456;-82
2021/10/23 00:36:42;;;;;;;42.00;9.80;;;8.00;99.90;;;;;;5079895;28;20479;-82
2021/10/23 00:39:09;;;;;;;39.10;8.70;;;8.10;99.90;;;;;;5080321;28;20524;-82
2021/10/23 00:41:36;;;;;;;39.13;9.40;;;8.10;99.90;;;;;;5079645;28;20527;-81
2021/10/23 00:44:03;;;;;;;40.20;8.43;;;8.10;99.90;;;;;;5079845;28;20455;-82
2021/10/23 00:46:29;;;;;;;38.80;8.90;;;8.20;99.90;;;;;;5079427;28;20472;-82
2021/10/23 00:48:58;;;;;;;39.40;9.10;;;8.20;99.90;;;;;;5071613;28;20484;-83
2021/10/23 00:51:24;;;;;;;42.70;10.40;;;8.20;99.90;;;;;;5079866;28;20494;-83
2021/10/23 00:53:51;;;;;;;40.63;10.23;;;8.20;99.90;;;;;;5080401;28;20836;-82
2021/10/23 00:56:18;;;;;;;47.23;10.57;;;8.20;99.90;;;;;;5079922;28;20569;-82
2021/10/23 00:58:46;;;;;;;39.93;11.50;;;8.20;99.90;;;;;;5084498;28;20514;-82
2021/10/23 01:01:13;;;;;;;42.33;11.40;;;8.20;99.90;;;;;;5078962;28;20493;-82
2021/10/23 01:03:40;;;;;;;44.63;11.30;;;8.20;99.90;;;;;;5080139;28;20546;-82
2021/10/23 01:06:09;;;;;;;43.77;11.17;;;8.30;99.90;;;;;;5070058;28;20454;-82
2021/10/23 01:08:36;;;;;;;41.00;11.20;;;8.30;99.90;;;;;;5087355;28;20500;-82
2021/10/23 01:11:03;;;;;;;46.80;12.57;;;8.30;99.90;;;;;;5081326;28;20452;-82
2021/10/23 01:13:29;;;;;;;41.67;11.80;;;8.40;99.90;;;;;;5079825;28;20489;-82
2021/10/23 01:15:56;;;;;;;43.43;12.03;;;8.30;99.90;;;;;;5079018;28;20462;-82
2021/10/23 01:18:23;;;;;;;43.67;11.10;;;8.30;99.90;;;;;;5079527;28;20467;-83
2021/10/23 01:20:51;;;;;;;50.13;13.60;;;8.30;99.90;;;;;;5079590;28;20456;-81
2021/10/23 01:23:18;;;;;;;42.03;11.80;;;8.20;99.90;;;;;;5068761;28;20453;-81
2021/10/23 01:25:45;;;;;;;42.80;12.70;;;8.20;99.90;;;;;;5079459;28;20530;-82
2021/10/23 01:28:12;;;;;;;45.30;12.63;;;8.20;99.90;;;;;;5081352;28;20496;-83
2021/10/23 01:30:38;;;;;;;44.83;13.40;;;8.10;99.90;;;;;;5096237;28;20455;-83
2021/10/23 01:33:05;;;;;;;46.07;13.77;;;8.10;99.90;;;;;;5089064;28;20458;-82
2021/10/23 01:35:32;;;;;;;49.83;14.43;;;8.10;99.90;;;;;;5084155;28;20479;-82
2021/10/23 01:38:00;;;;;;;46.07;13.50;;;8.10;99.90;;;;;;5083531;28;20558;-81
2021/10/23 01:40:33;;;;;;;47.60;15.70;;;8.10;99.90;;;;;;5083144;28;20468;-78
2021/10/23 01:43:00;;;;;;;47.73;14.90;;;8.10;99.90;;;;;;5086544;28;20471;-81
2021/10/23 01:45:27;;;;;;;48.83;13.93;;;8.10;99.90;;;;;;5080936;28;20855;-80
2021/10/23 01:47:54;;;;;;;52.00;19.50;;;8.10;99.90;;;;;;5082227;28;20487;-80
2021/10/23 01:50:22;;;;;;;48.27;15.13;;;8.00;99.90;;;;;;5080437;28;20826;-81
2021/10/23 01:52:53;;;;;;;49.80;14.27;;;8.10;99.90;;;;;;5090413;28;20451;-79
2021/10/23 01:55:21;;;;;;;49.07;14.80;;;8.20;99.90;;;;;;5086835;28;20462;-80
2021/10/23 01:57:48;;;;;;;46.50;13.57;;;8.20;99.90;;;;;;5076688;28;20473;-80
2021/10/23 02:00:17;;;;;;;46.03;12.97;;;8.10;99.90;;;;;;5067438;28;20492;-80
2021/10/23 02:02:44;;;;;;;46.43;13.43;;;8.10;99.90;;;;;;5080958;28;20530;-80
2021/10/23 02:05:11;;;;;;;45.07;13.27;;;8.10;99.90;;;;;;5080205;28;20997;-80
2021/10/23 02:07:38;;;;;;;52.43;13.60;;;8.10;99.90;;;;;;5080119;28;20492;-81
2021/10/23 02:10:06;;;;;;;47.23;12.13;;;8.10;99.90;;;;;;5080083;28;20461;-81
2021/10/23 02:12:34;;;;;;;44.70;12.90;;;8.10;99.90;;;;;;5078666;28;20464;-80
2021/10/23 02:15:01;;;;;;;43.73;13.30;;;8.10;99.90;;;;;;5080135;28;20462;-80
2021/10/23 02:17:28;;;;;;;48.03;13.47;;;8.10;99.90;;;;;;5086089;28;20539;-79
2021/10/23 02:19:55;;;;;;;48.07;13.97;;;8.00;99.90;;;;;;5088448;28;20451;-80
2021/10/23 02:22:22;;;;;;;45.70;13.80;;;8.00;99.90;;;;;;5079446;28;20459;-80
2021/10/23 02:24:48;;;;;;;45.87;15.07;;;8.00;99.90;;;;;;5081271;28;20458;-82
2021/10/23 02:27:15;;;;;;;46.47;14.33;;;7.90;99.90;;;;;;5084119;28;20467;-82
2021/10/23 02:29:43;;;;;;;46.83;14.33;;;7.90;99.90;;;;;;5077796;28;20483;-82
2021/10/23 02:32:10;;;;;;;49.00;15.37;;;7.90;99.90;;;;;;5074350;28;20461;-82
2021/10/23 02:34:37;;;;;;;49.63;14.33;;;7.90;99.90;;;;;;5081153;28;20462;-82
2021/10/23 02:37:04;;;;;;;46.73;14.10;;;7.80;99.90;;;;;;5082711;28;21004;-83
2021/10/23 02:39:31;;;;;;;54.73;15.07;;;7.80;99.90;;;;;;5081349;28;20452;-83
2021/10/23 02:41:57;;;;;;;48.97;15.83;;;7.80;99.90;;;;;;5079644;28;20523;-82
2021/10/23 02:44:24;;;;;;;48.20;15.33;;;7.80;99.90;;;;;;5068518;28;20453;-83
2021/10/23 02:46:52;;;;;;;48.10;15.57;;;7.70;99.90;;;;;;5076439;28;20476;-83
2021/10/23 02:49:19;;;;;;;50.53;15.80;;;7.70;99.90;;;;;;5062220;28;20487;-83
2021/10/23 02:51:46;;;;;;;50.43;15.40;;;7.70;99.90;;;;;;5080422;28;20456;-82
2021/10/23 02:54:13;;;;;;;49.33;16.10;;;7.70;99.90;;;;;;5080905;28;20451;-83
2021/10/23 02:56:40;;;;;;;51.77;16.70;;;7.60;99.90;;;;;;5080971;28;20489;-82
2021/10/23 02:59:07;;;;;;;55.00;16.80;;;7.60;99.90;;;;;;5080574;28;20573;-80
2021/10/23 03:01:34;;;;;;;54.10;16.50;;;7.60;99.90;;;;;;5072123;28;20485;-83
2021/10/23 03:04:02;;;;;;;53.90;16.03;;;7.60;99.90;;;;;;5076201;28;20455;-82
2021/10/23 03:06:29;;;;;;;54.90;14.70;;;7.60;99.90;;;;;;5080624;28;20478;-82
2021/10/23 03:08:55;;;;;;;51.00;14.97;;;7.50;99.90;;;;;;5080495;28;20502;-83
2021/10/23 03:11:22;;;;;;;54.40;15.70;;;7.50;99.90;;;;;;5080362;28;20458;-82
2021/10/23 03:13:50;;;;;;;53.47;16.13;;;7.50;99.90;;;;;;5080738;28;20888;-82
2021/10/23 03:16:16;;;;;;;56.80;17.17;;;7.40;99.90;;;;;;5075331;28;20476;-83
2021/10/23 03:18:43;;;;;;;56.93;16.00;;;7.50;99.90;;;;;;5071168;28;20447;-82
2021/10/23 03:21:12;;;;;;;57.77;17.47;;;7.50;99.90;;;;;;5073020;28;20463;-81
2021/10/23 03:23:38;;;;;;;53.77;14.80;;;7.50;99.90;;;;;;5071197;28;20903;-82
2021/10/23 03:26:05;;;;;;;55.60;16.00;;;7.50;99.90;;;;;;5076714;28;20462;-82
2021/10/23 03:28:32;;;;;;;54.00;15.83;;;7.60;99.90;;;;;;5069208;28;20487;-82
2021/10/23 03:30:59;;;;;;;56.63;15.63;;;7.60;99.90;;;;;;5079672;28;20460;-84
2021/10/23 03:33:25;;;;;;;52.40;16.30;;;7.60;99.90;;;;;;5080593;28;20461;-82
2021/10/23 03:35:52;;;;;;;53.03;14.90;;;7.70;99.90;;;;;;5075925;28;20459;-83
2021/10/23 03:38:20;;;;;;;56.00;15.00;;;7.70;99.90;;;;;;5065508;28;20447;-82
2021/10/23 03:40:47;;;;;;;59.43;16.70;;;7.70;99.90;;;;;;5076919;28;20461;-83
2021/10/23 03:43:14;;;;;;;53.13;15.80;;;7.70;99.90;;;;;;5080684;28;20462;-82
2021/10/23 03:45:40;;;;;;;54.10;16.60;;;7.70;99.90;;;;;;5080023;28;20470;-83
2021/10/23 03:48:07;;;;;;;53.47;15.27;;;7.60;99.90;;;;;;5080510;28;20488;-83
2021/10/23 03:50:34;;;;;;;55.83;15.30;;;7.60;99.90;;;;;;5077258;28;20456;-82
2021/10/23 03:53:01;;;;;;;58.97;15.90;;;7.50;99.90;;;;;;5074492;28;20838;-81
2021/10/23 03:55:29;;;;;;;55.27;16.20;;;7.50;99.90;;;;;;5084200;28;20455;-82
2021/10/23 03:57:55;;;;;;;56.97;17.30;;;7.50;99.90;;;;;;5078064;28;20483;-82
2021/10/23 04:00:23;;;;;;;53.80;16.03;;;7.50;99.90;;;;;;5079100;28;20462;-80
2021/10/23 04:02:49;;;;;;;58.30;16.83;;;7.40;99.90;;;;;;5079434;28;20462;-83
2021/10/23 04:05:16;;;;;;;58.53;16.43;;;7.40;99.90;;;;;;5091097;28;20447;-83
2021/10/23 04:07:43;;;;;;;56.97;17.30;;;7.40;99.90;;;;;;5078060;28;21016;-82
2021/10/23 04:10:10;;;;;;;57.50;17.90;;;7.40;99.90;;;;;;5075975;28;20502;-83
2021/10/23 04:12:38;;;;;;;59.20;18.20;;;7.30;99.90;;;;;;5075394;28;20966;-82
2021/10/23 04:15:06;;;;;;;56.00;17.17;;;7.30;99.90;;;;;;5078089;28;20455;-81
2021/10/23 04:17:32;;;;;;;66.23;16.07;;;7.30;99.90;;;;;;5077853;28;20842;-83
2021/10/23 04:19:59;;;;;;;59.57;16.27;;;7.30;99.90;;;;;;5075231;28;20458;-79
2021/10/23 04:22:26;;;;;;;54.80;15.97;;;7.30;99.90;;;;;;5076595;28;20451;-80
2021/10/23 04:24:53;;;;;;;53.87;16.37;;;7.30;99.90;;;;;;5076219;28;20457;-81
2021/10/23 04:27:20;;;;;;;59.40;17.90;;;7.30;99.90;;;;;;5076474;28;20475;-81
2021/10/23 04:29:48;;;;;;;57.43;16.87;;;7.30;99.90;;;;;;5063851;28;20488;-81
2021/10/23 04:32:15;;;;;;;58.90;16.10;;;7.30;99.90;;;;;;5075436;28;20543;-81
2021/10/23 04:34:42;;;;;;;55.43;18.33;;;7.30;99.90;;;;;;5077025;28;20465;-80
2021/10/23 04:37:09;;;;;;;56.93;15.80;;;7.30;99.90;;;;;;5062582;28;20479;-81
2021/10/23 04:39:36;;;;;;;56.63;16.27;;;7.20;99.90;;;;;;5075966;28;20452;-80
2021/10/23 04:42:03;;;;;;;60.10;17.40;;;7.20;99.90;;;;;;5075310;28;20906;-81
2021/10/23 04:44:30;;;;;;;58.23;16.73;;;7.20;99.90;;;;;;5076255;28;20454;-81
2021/10/23 04:46:59;;;;;;;58.47;14.83;;;7.20;99.90;;;;;;5079200;28;20485;-81
2021/10/23 04:49:25;;;;;;;59.07;16.97;;;7.20;99.90;;;;;;5077734;28;20489;-81
2021/10/23 04:51:52;;;;;;;59.33;16.40;;;7.20;99.90;;;;;;5080690;28;20820;-80
2021/10/23 04:54:19;;;;;;;61.10;18.57;;;7.20;99.90;;;;;;5080378;28;20447;-81
2021/10/23 04:56:45;;;;;;;59.20;17.30;;;7.10;99.90;;;;;;5077676;28;20490;-81
2021/10/23 04:59:12;;;;;;;64.90;18.10;;;7.10;99.90;;;;;;5076371;28;20458;-81
2021/10/23 05:01:39;;;;;;;55.67;15.30;;;7.10;99.90;;;;;;5072142;28;20455;-81
2021/10/23 05:04:07;;;;;;;60.47;17.50;;;7.10;99.90;;;;;;5071528;28;20459;-81
2021/10/23 05:06:34;;;;;;;60.70;17.57;;;7.00;99.90;;;;;;5073685;28;20479;-81
2021/10/23 05:09:01;;;;;;;61.20;16.23;;;7.00;99.90;;;;;;5080706;28;20481;-80
2021/10/23 05:11:27;;;;;;;60.53;17.20;;;7.00;99.90;;;;;;5082494;28;20465;-81
2021/10/23 05:13:54;;;;;;;60.50;16.50;;;7.00;99.90;;;;;;5079337;28;20458;-81
2021/10/23 05:16:21;;;;;;;63.00;16.93;;;6.90;99.90;;;;;;5083808;28;20474;-81
2021/10/23 05:18:49;;;;;;;61.43;17.33;;;6.90;99.90;;;;;;5085988;28;20461;-81
2021/10/23 05:21:18;;;;;;;58.47;15.50;;;6.90;99.90;;;;;;5081922;28;20458;-81
2021/10/23 05:23:45;;;;;;;62.20;16.80;;;6.90;99.90;;;;;;5095955;28;20466;-81
2021/10/23 05:26:12;;;;;;;59.53;16.47;;;6.90;99.90;;;;;;5084871;28;20458;-80
2021/10/23 05:28:39;;;;;;;60.03;16.30;;;6.80;99.90;;;;;;5082581;28;20488;-81
2021/10/23 05:31:05;;;;;;;62.60;16.23;;;6.80;99.90;;;;;;5082659;28;20454;-81
2021/10/23 05:33:32;;;;;;;62.97;17.00;;;6.80;99.90;;;;;;5083230;28;20451;-81
2021/10/23 05:35:59;;;;;;;67.93;17.90;;;6.80;99.90;;;;;;5082917;28;20464;-81
2021/10/23 05:38:27;;;;;;;61.40;16.80;;;6.70;99.90;;;;;;5079201;28;20461;-81
2021/10/23 05:40:54;;;;;;;64.00;16.40;;;6.70;99.90;;;;;;5095493;28;21027;-81
2021/10/23 05:43:21;;;;;;;57.90;16.27;;;6.70;99.90;;;;;;5086085;28;20560;-81
2021/10/23 05:45:48;;;;;;;58.93;16.47;;;6.70;99.90;;;;;;5083606;28;20542;-81
2021/10/23 05:48:15;;;;;;;62.70;18.33;;;6.70;99.90;;;;;;5095951;28;21019;-81
2021/10/23 05:50:42;;;;;;;61.50;18.37;;;6.60;99.90;;;;;;5088145;28;20494;-81
2021/10/23 05:53:09;;;;;;;58.00;16.57;;;6.60;99.90;;;;;;5086263;28;20468;-80
2021/10/23 05:55:37;;;;;;;56.43;15.10;;;6.50;99.90;;;;;;5083169;28;20477;-80
2021/10/23 05:58:05;;;;;;;62.17;16.13;;;6.50;99.90;;;;;;5082535;28;20486;-80
2021/10/23 06:00:34;;;;;;;58.63;15.60;;;6.50;99.90;;;;;;5095174;28;20465;-80
2021/10/23 06:03:01;;;;;;;40.85;18.58;;;6.60;99.90;;;;;;5088801;28;20444;-80
2021/10/23 06:05:28;;;;;;;55.40;17.43;;;6.60;99.90;;;;;;5086769;28;20201;-80
2021/10/23 06:07:55;;;;;;;58.60;18.60;;;6.70;99.90;;;;;;5092571;28;20478;-80
2021/10/23 06:10:22;;;;;;;54.83;17.00;;;6.80;99.90;;;;;;5081323;28;20490;-80
2021/10/23 06:12:51;;;;;;;55.97;17.17;;;6.90;99.90;;;;;;5080228;28;20450;-80
2021/10/23 06:15:18;;;;;;;61.90;17.57;;;6.90;99.90;;;;;;5078080;28;20449;-79
2021/10/23 06:17:44;;;;;;;58.63;19.10;;;7.00;99.90;;;;;;5080521;28;20567;-80
2021/10/23 06:20:12;;;;;;;55.23;15.63;;;7.10;99.90;;;;;;5082438;28;20454;-81
2021/10/23 06:22:48;;;;;;;60.40;18.63;;;7.10;99.90;;;;;;5081496;28;20538;-79
2021/10/23 06:25:17;;;;;;;57.13;17.40;;;7.20;99.90;;;;;;5080396;28;20460;-80
2021/10/23 06:27:44;;;;;;;64.47;19.40;;;7.30;99.90;;;;;;5078129;28;20481;-80
2021/10/23 06:30:12;;;;;;;60.57;17.70;;;7.50;99.90;;;;;;5082387;28;20489;-80
2021/10/23 06:32:45;;;;;;;56.63;17.47;;;7.50;99.90;;;;;;5078046;28;20462;-80
2021/10/23 06:35:12;;;;;;;63.13;21.30;;;7.60;99.90;;;;;;5079715;28;20455;-83
2021/10/23 06:37:39;;;;;;;57.50;20.33;;;7.60;99.90;;;;;;5083886;28;20477;-82
2021/10/23 06:40:07;;;;;;;55.00;18.90;;;7.70;99.90;;;;;;5081929;28;20465;-82
2021/10/23 06:42:34;;;;;;;58.23;18.20;;;7.90;99.90;;;;;;5079834;28;20535;-82
2021/10/23 06:45:01;;;;;;;61.57;20.50;;;8.00;99.90;;;;;;5078649;28;20908;-82
2021/10/23 06:47:29;;;;;;;60.17;21.30;;;8.00;99.90;;;;;;5080206;28;20478;-82
2021/10/23 06:49:56;;;;;;;59.43;21.60;;;8.10;99.90;;;;;;5080226;28;20483;-82
2021/10/23 06:52:23;;;;;;;60.57;20.77;;;8.20;99.90;;;;;;5079219;28;20452;-82
2021/10/23 06:54:49;;;;;;;57.33;21.20;;;8.20;99.90;;;;;;5082069;28;20480;-82
2021/10/23 06:57:16;;;;;;;62.33;21.93;;;8.30;99.90;;;;;;5082432;28;21029;-84
2021/10/23 06:59:43;;;;;;;65.03;22.20;;;8.40;99.90;;;;;;5071998;28;20448;-83
2021/10/23 07:02:10;;;;;;;61.67;21.93;;;8.50;99.90;;;;;;5073789;28;20828;-86
2021/10/23 07:04:38;;;;;;;62.67;22.67;;;8.50;99.90;;;;;;5088476;28;20452;-85
2021/10/23 07:07:05;;;;;;;62.23;22.03;;;8.60;99.90;;;;;;5082523;28;20553;-86
2021/10/23 07:09:32;;;;;;;74.43;24.57;;;8.60;99.90;;;;;;5075963;28;20492;-84
2021/10/23 07:11:59;;;;;;;68.87;25.10;;;8.70;99.90;;;;;;5078612;28;20501;-86
2021/10/23 07:14:26;;;;;;;68.40;24.83;;;8.70;99.90;;;;;;5094909;28;20992;-84
2021/10/23 07:16:53;;;;;;;66.03;22.57;;;8.80;99.90;;;;;;5091520;28;20478;-85
2021/10/23 07:19:20;;;;;;;57.10;22.73;;;8.90;99.90;;;;;;5082302;28;20901;-85
2021/10/23 07:21:48;;;;;;;61.43;24.30;;;8.90;99.90;;;;;;5083233;28;20447;-86
2021/10/23 07:24:17;;;;;;;64.03;24.53;;;9.00;99.90;;;;;;5070277;28;20458;-85
2021/10/23 07:26:44;;;;;;;62.77;22.57;;;9.00;99.90;;;;;;5081684;28;20479;-85
2021/10/23 07:29:13;;;;;;;57.20;22.40;;;9.10;99.90;;;;;;5084832;28;20529;-85
2021/10/23 07:31:40;;;;;;;64.00;25.47;;;9.10;99.90;;;;;;5089892;28;20549;-83
2021/10/23 07:34:06;;;;;;;72.60;27.30;;;9.20;99.90;;;;;;5092168;28;20461;-84
2021/10/23 07:36:33;;;;;;;73.73;28.63;;;9.20;99.90;;;;;;5081686;28;20867;-85
2021/10/23 07:39:01;;;;;;;62.47;23.33;;;9.10;99.90;;;;;;5093468;28;20827;-84
2021/10/23 07:41:28;;;;;;;79.77;29.00;;;9.20;99.90;;;;;;5082839;28;20484;-85
2021/10/23 07:43:55;;;;;;;65.83;26.40;;;9.10;99.90;;;;;;5097525;28;20499;-86
2021/10/23 07:46:22;;;;;;;60.23;24.37;;;9.00;99.90;;;;;;5099557;28;20525;-85
2021/10/23 07:48:49;;;;;;;60.00;24.10;;;9.20;99.90;;;;;;5101902;28;20490;-86
2021/10/23 07:51:16;;;;;;;70.00;27.10;;;9.30;99.90;;;;;;5102342;28;20511;-87
2021/10/23 07:53:42;;;;;;;61.87;24.90;;;9.40;99.90;;;;;;5096059;28;20441;-86
2021/10/23 07:56:10;;;;;;;66.90;26.20;;;9.60;99.90;;;;;;5100212;28;20481;-85
2021/10/23 07:58:37;;;;;;;79.57;30.13;;;9.70;99.90;;;;;;5083033;28;20522;-85
2021/10/23 08:01:04;;;;;;;66.37;28.17;;;9.80;99.90;;;;;;5102023;28;20517;-84
2021/10/23 08:03:31;;;;;;;68.63;27.77;;;9.90;99.90;;;;;;5087644;28;20510;-85
2021/10/23 08:05:58;;;;;;;69.17;26.07;;;10.00;99.90;;;;;;5082611;28;20549;-85
2021/10/23 08:08:25;;;;;;;61.70;25.73;;;9.90;99.90;;;;;;5081222;28;20485;-83
2021/10/23 08:10:51;;;;;;;65.73;24.73;;;10.00;99.90;;;;;;5072770;28;20488;-82
2021/10/23 08:13:20;;;;;;;61.87;25.30;;;10.10;99.90;;;;;;5062129;28;20459;-82
2021/10/23 08:15:47;;;;;;;61.77;24.47;;;10.10;99.90;;;;;;5068195;28;20480;-83
2021/10/23 08:18:14;;;;;;;59.90;22.10;;;10.10;99.90;;;;;;5077341;28;20881;-83
2021/10/23 08:20:41;;;;;;;58.60;23.60;;;10.20;99.90;;;;;;5077065;28;20478;-83
2021/10/23 08:23:09;;;;;;;56.63;21.90;;;10.30;99.90;;;;;;5078555;28;20839;-82
2021/10/23 08:25:36;;;;;;;61.07;23.53;;;10.30;99.90;;;;;;5060559;28;20882;-82
2021/10/23 08:28:02;;;;;;;59.03;22.63;;;10.30;99.90;;;;;;5073471;28;20473;-83
2021/10/23 08:30:31;;;;;;;66.73;24.80;;;10.20;99.90;;;;;;5079566;28;20495;-84
2021/10/23 08:32:58;;;;;;;61.83;24.30;;;10.20;99.90;;;;;;5078429;28;20467;-83
2021/10/23 08:35:25;;;;;;;71.93;28.80;;;10.20;99.90;;;;;;5072949;28;20451;-84
2021/10/23 08:37:54;;;;;;;63.97;24.07;;;10.20;99.90;;;;;;5061973;28;20457;-83
2021/10/23 08:40:21;;;;;;;65.00;23.37;;;10.30;99.90;;;;;;5056551;28;20482;-83
2021/10/23 08:42:48;;;;;;;70.27;27.53;;;10.40;99.90;;;;;;5055194;28;20461;-82
2021/10/23 08:45:16;;;;;;;62.17;22.00;;;10.50;99.90;;;;;;5058873;28;20499;-82
2021/10/23 08:47:45;;;;;;;59.03;22.37;;;10.60;99.90;;;;;;5069909;28;20491;-82
2021/10/23 08:50:16;;;;;;;52.17;19.70;;;10.60;99.90;;;;;;5081136;28;20570;-83
2021/10/23 08:52:45;;;;;;;55.70;18.80;;;10.60;99.90;;;;;;5059588;28;20450;-83
2021/10/23 08:55:12;;;;;;;55.70;18.00;;;10.60;99.90;;;;;;5059272;28;20461;-83
2021/10/23 08:57:39;;;;;;;51.53;16.73;;;10.60;99.90;;;;;;5060220;28;20568;-83
2021/10/23 09:00:10;;;;;;;51.77;18.60;;;10.60;99.90;;;;;;5059175;28;20481;-83
2021/10/23 09:02:37;;;;;;;57.43;18.10;;;10.60;99.90;;;;;;5078567;28;20535;-84
2021/10/23 09:05:07;;;;;;;55.83;18.53;;;10.60;99.90;;;;;;5078892;28;20464;-84
2021/10/23 09:07:40;;;;;;;56.70;17.40;;;10.70;99.90;;;;;;5075739;28;20499;-84
2021/10/23 09:10:08;;;;;;;52.97;16.77;;;10.80;99.90;;;;;;5076876;28;20497;-85
2021/10/23 09:12:36;;;;;;;46.20;15.60;;;10.80;99.90;;;;;;5076918;28;20453;-85
2021/10/23 09:15:06;;;;;;;55.27;16.90;;;10.90;99.90;;;;;;5081397;28;20552;-84
2021/10/23 09:17:34;;;;;;;52.77;15.83;;;10.90;99.90;;;;;;5075637;28;20476;-85
2021/10/23 09:20:09;;;;;;;51.73;16.53;;;11.20;99.90;;;;;;5065472;28;20446;-85
2021/10/23 09:22:38;;;;;;;52.13;14.80;;;11.30;99.90;;;;;;5058777;28;20453;-85
2021/10/23 09:25:14;;;;;;;47.60;15.37;;;11.60;99.90;;;;;;5076503;28;20894;-85
2021/10/23 09:27:53;;;;;;;47.37;17.23;;;11.80;99.90;;;;;;5071863;28;20470;-85
2021/10/23 09:30:21;;;;;;;51.77;13.97;;;11.80;99.90;;;;;;5057212;28;20805;-85
2021/10/23 09:32:53;;;;;;;48.13;15.33;;;12.00;99.90;;;;;;5057876;28;20469;-85
2021/10/23 09:35:23;;;;;;;45.23;13.57;;;12.20;99.90;;;;;;5071897;28;20453;-86
2021/10/23 09:37:53;;;;;;;54.17;15.37;;;12.30;99.90;;;;;;5081920;28;20474;-86
2021/10/23 09:40:21;;;;;;;51.53;13.50;;;12.50;99.90;;;;;;5078528;28;20443;-85
2021/10/23 09:42:48;;;;;;;51.70;15.07;;;12.50;99.90;;;;;;5065988;28;20540;-86
2021/10/23 09:45:15;;;;;;;48.73;13.00;;;12.40;99.90;;;;;;5076227;28;20430;-86
2021/10/23 09:47:44;;;;;;;45.90;13.30;;;12.30;99.90;;;;;;5076411;28;20481;-85
2021/10/23 09:50:14;;;;;;;52.10;13.53;;;12.20;99.90;;;;;;5080510;28;20496;-85
2021/10/23 09:53:00;;;;;;;46.67;13.03;;;12.20;99.90;;;;;;5075735;28;20557;-85
2021/10/23 09:55:29;;;;;;;45.00;12.13;;;12.20;99.90;;;;;;5080033;28;20453;-85
2021/10/23 09:58:12;;;;;;;53.67;13.27;;;12.20;99.90;;;;;;5078931;28;21027;-85
2021/10/23 10:00:40;;;;;;;42.80;12.60;;;12.20;99.90;;;;;;5077891;28;20541;-85
2021/10/23 10:03:08;;;;;;;44.07;11.17;;;12.30;99.90;;;;;;5076955;28;20450;-86
2021/10/23 10:05:35;;;;;;;43.97;11.10;;;12.50;99.90;;;;;;5068429;28;20454;-85
2021/10/23 10:08:09;;;;;;;43.77;12.57;;;12.60;99.90;;;;;;5079619;28;20481;-85
2021/10/23 10:10:37;;;;;;;42.10;11.93;;;12.80;99.90;;;;;;5066006;28;20506;-85
2021/10/23 10:13:04;;;;;;;41.00;11.53;;;13.10;99.90;;;;;;5080322;28;20442;-86
2021/10/23 10:15:31;;;;;;;38.67;10.30;;;13.40;99.90;;;;;;5097413;28;20437;-86
2021/10/23 10:18:02;;;;;;;37.43;9.50;;;13.60;99.90;;;;;;5098705;28;20481;-85
2021/10/23 10:20:30;;;;;;;36.60;9.90;;;13.70;99.90;;;;;;5085130;28;20960;-85
2021/10/23 10:22:58;;;;;;;37.50;10.10;;;13.70;99.90;;;;;;5075647;28;21019;-86
2021/10/23 10:25:27;;;;;;;40.53;10.87;;;13.80;99.90;;;;;;5074008;28;20513;-86
2021/10/23 10:27:54;;;;;;;35.93;9.47;;;14.00;99.90;;;;;;5070450;28;20468;-85
2021/10/23 10:30:24;;;;;;;39.00;12.57;;;14.10;99.90;;;;;;5075790;28;20498;-85
2021/10/23 10:32:51;;;;;;;38.07;8.73;;;14.20;99.90;;;;;;5074837;28;20505;-86
2021/10/23 10:35:53;;;;;;;36.20;8.63;;;14.30;99.90;;;;;;5075885;28;20897;-85
2021/10/23 10:38:31;;;;;;;36.90;9.27;;;14.50;99.90;;;;;;5078718;28;20486;-85
2021/10/23 10:44:19;;;;;;;31.23;7.80;;;14.70;99.90;;;;;;5078252;28;20462;-86
2021/10/23 10:47:08;;;;;;;35.53;9.07;;;14.90;99.90;;;;;;5077365;28;20561;-85
2021/10/23 10:49:56;;;;;;;29.93;7.50;;;14.80;99.90;;;;;;5082422;28;20461;-85
2021/10/23 10:52:52;;;;;;;31.00;7.03;;;14.90;99.90;;;;;;5076939;28;20458;-85
2021/10/23 10:55:20;;;;;;;34.47;7.40;;;15.20;99.90;;;;;;5077003;28;20541;-85
2021/10/23 10:58:00;;;;;;;35.97;7.30;;;15.30;99.90;;;;;;5087102;22;20491;-79
2021/10/23 11:01:13;;;;;;;30.90;6.80;;;15.20;99.90;;;;;;5058353;28;20501;-79
2021/10/23 11:04:06;;;;;;;31.50;7.40;;;15.00;99.90;;;;;;5063716;28;20457;-79
2021/10/23 11:06:54;;;;;;;34.97;7.43;;;15.00;99.90;;;;;;5062848;28;20454;-79
2021/10/23 11:09:45;;;;;;;32.13;7.13;;;14.80;99.90;;;;;;5047894;28;20486;-79
2021/10/23 11:12:19;;;;;;;33.83;6.30;;;14.60;99.90;;;;;;5036946;28;20535;-78
2021/10/23 11:14:48;;;;;;;36.70;6.90;;;15.10;99.90;;;;;;5049242;28;20453;-78
2021/10/23 11:17:16;;;;;;;34.47;6.23;;;16.20;99.90;;;;;;5049689;28;20547;-80
2021/10/23 11:19:45;;;;;;;29.33;5.73;;;17.20;99.90;;;;;;5049068;28;20458;-79
2021/10/23 11:22:13;;;;;;;28.70;5.50;;;;;;;;;;5050379;28;20465;-79
2021/10/23 11:24:40;;;;;;;26.10;5.20;;;;;;;;;;5035796;28;20451;-80
2021/10/23 11:27:07;;;;;;;25.77;4.73;;;;;;;;;;5031291;28;20481;-79
2021/10/23 11:29:37;;;;;;;25.70;5.27;;;;;;;;;;5032274;28;20522;-79
2021/10/23 11:32:05;;;;;;;25.93;6.10;;;;;;;;;;5031257;28;20520;-80
2021/10/23 11:34:33;;;;;;;24.83;5.40;;;;;;;;;;5033401;28;20687;-79
2021/10/23 11:37:00;;;;;;;30.73;6.00;;;;;;;;;;5051567;28;20520;-80
2021/10/23 11:39:28;;;;;;;28.33;5.10;;;;;;;;;;5048830;28;20501;-80
2021/10/23 11:42:14;;;;;;;35.97;6.80;;;;;;;;;;5042042;28;20885;-78
2021/10/23 11:44:41;;;;;;;27.40;4.60;;;;;;;;;;5041013;28;20537;-78
2021/10/23 11:47:11;;;;;;;27.93;4.30;;;;;;;;;;5035970;28;20492;-77
2021/10/23 11:49:38;;;;;;;28.27;4.23;;;;;;;;;;5038046;28;20457;-78
2021/10/23 11:52:07;;;;;;;24.30;3.97;;;;;;;;;;5037109;28;20485;-79
2021/10/23 11:54:43;;;;;;;28.33;4.60;;;;;;;;;;5040004;28;20457;-78
2021/10/23 11:57:10;;;;;;;26.83;3.83;;;;;;;;;;5033447;28;20481;-78
2021/10/23 11:59:39;;;;;;;24.80;3.10;;;;;;;;;;5035267;28;20513;-78
2021/10/23 12:02:15;;;;;;;25.50;2.67;;;;;;;;;;5038988;28;20438;-80
2021/10/23 12:04:44;;;;;;;28.70;3.63;;;;;;;;;;5041160;28;20988;-77
2021/10/23 12:07:31;;;;;;;25.90;2.20;;;;;;;;;;5034920;28;20816;-76
2021/10/23 12:10:05;;;;;;;24.90;1.63;;;;;;;;;;5027977;28;20446;-78
2021/10/23 12:12:32;;;;;;;27.47;2.57;;;;;;;;;;5029639;28;20567;-78
2021/10/23 12:15:14;;;;;;;26.07;2.37;;;;;;;;;;5035615;28;20457;-77
2021/10/23 12:17:43;;;;;;;26.90;2.60;;;;;;;;;;5034700;28;20472;-77
2021/10/23 12:20:15;;;;;;;27.30;2.50;;;;;;;;;;5032972;28;20468;-78
2021/10/23 12:22:42;;;;;;;27.80;1.90;;;;;;;;;;5037763;28;20457;-78
2021/10/23 12:25:11;;;;;;;26.40;2.07;;;;;;;;;;5033942;28;20841;-77
2021/10/23 12:27:38;;;;;;;30.30;1.83;;;;;;;;;;5036710;28;20488;-77
2021/10/23 12:30:06;;;;;;;28.70;2.00;;;;;;;;;;5043146;28;20457;-80
2021/10/23 12:32:37;;;;;;;26.20;1.87;;;;;;;;;;5044651;28;20552;-80
2021/10/23 12:35:07;;;;;;;30.37;3.10;;;;;;;;;;5046921;28;20532;-79
2021/10/23 12:37:41;;;;;;;30.57;2.33;;;;;;;;;;5042818;28;20461;-79
2021/10/23 12:40:10;;;;;;;29.37;3.00;;;;;;;;;;5043637;28;20456;-80
2021/10/23 12:42:39;;;;;;;29.80;2.87;;;;;;;;;;5041137;28;20472;-81
2021/10/23 12:45:07;;;;;;;32.83;3.93;;;;;;;;;;5045708;28;20543;-80
2021/10/23 12:47:34;;;;;;;30.43;3.17;;;;;;;;;;5043698;28;20555;-80
2021/10/23 12:50:01;;;;;;;31.60;2.83;;;;;;;;;;5041601;28;20485;-77
2021/10/23 12:52:30;;;;;;;31.37;2.77;;;;;;;;;;5042090;28;20548;-81
2021/10/23 12:54:58;;;;;;;36.37;3.00;;;;;;;;;;5040597;28;20471;-80
2021/10/23 12:57:25;;;;;;;31.70;2.73;;;;;;;;;;5042200;28;20470;-81
2021/10/23 12:59:52;;;;;;;31.47;2.40;;;;;;;;;;5042315;28;20448;-80